Hurlburt Field, FL

6:20 AM CST on January 29, 2015 (GMT -0600)
Crestview | Change Station
CLOSE
Current Station
Airport
Location: Crestview,
Elevation: 194 ft
Nearby Weather Stations

Elev 194 ft 30.65 °N, 86.52 °W | Updated 6 hours ago

Clear
Clear
50 °F
Feels Like 50 °F
N
9
Wind Variable Wind from ESE
Gusts 12 mph

Today
High -- | Low -- °F
--% Chance of Precip.
Yesterday
High -- | Low -- °F
Precip. -- in
6:39 AM 5:20 PM
Waxing Gibbous, 74% visible
Pressure 30.25 in
Visibility 10.0 miles
Clouds Few 25000 ft
Dew Point 44 °F
Humidity 78%
Rainfall 0.00 in
Snow Depth Not available.
UV 0 out of 12
Pollen 6.00 out of 12
Air Quality Not available.
Flu Activity Not available.
METAR KEGI 290555Z 13007KT 10SM FEW250 08/01 A3024 RMK AO2A SLP242 T00790008 10101 20018 401671012 58010 $

More Conditions Fewer Conditions

Pressure 30.25 in
Visibility 10.0 miles
Clouds Few 25000 ft
Dew Point 44 °F
Humidity 78%
Rainfall 0.00 in
Snow Depth Not available.
UV 0 out of 12
Pollen 6.00 out of 12
Air Quality Not available.
Flu Activity Not available.
METAR KEGI 290555Z 13007KT 10SM FEW250 08/01 A3024 RMK AO2A SLP242 T00790008 10101 20018 401671012 58010 $

More Conditions Fewer Conditions

10-Day Weather Forecast

Almanac

Astronomy

Jan. 29, 2015 Rise Set
Actual Time
Civil Twilight
Nautical Twilight
Astronomical Twilight
Moon
Length of Visible Light
Length of Day
Tomorrow will be .
, % of the Moon is Illuminated

Today's Extremes

State Highs State Lows

Community

WunderPhotos

Upload Photos

1,791,420 photos uploaded!

WunderBlogs® & News

Nearby

Air Quality

  Air Quality AQ Index Pollutant
Not available.

Snow Depth

Station Depth Elevation

Earthquake Activity

City Distance Mag. Time & Date
Minimum magnitude displayed is 2.5.

Coastal Water Temperatures

Place Temperature

Nearby Weather Stations